createdAt,value
2022-11-08T00:00:40.554Z,7.03
2022-11-08T00:03:10.104Z,9.50
2022-11-08T00:05:55.759Z,6.20
2022-11-08T00:08:40.993Z,4.77
2022-11-08T00:11:26.232Z,8.87
2022-11-08T00:14:00.217Z,8.00
2022-11-08T00:16:28.630Z,5.93
2022-11-08T00:18:58.232Z,5.97
2022-11-08T00:21:26.394Z,5.63
2022-11-08T00:23:54.485Z,5.60
2022-11-08T00:26:22.474Z,4.23
2022-11-08T00:28:50.418Z,3.23
2022-11-08T00:31:18.406Z,7.30
2022-11-08T00:33:46.385Z,8.00
2022-11-08T00:36:15.788Z,6.57
2022-11-08T00:38:43.990Z,3.90
2022-11-08T00:41:12.471Z,4.77
2022-11-08T00:43:40.496Z,4.10
2022-11-08T00:46:08.705Z,3.77
2022-11-08T00:48:36.924Z,3.10
2022-11-08T00:51:05.879Z,4.10
2022-11-08T00:53:37.421Z,5.50
2022-11-08T00:56:07.442Z,3.03
2022-11-08T00:58:35.521Z,2.93
2022-11-08T01:01:10.411Z,2.10
2022-11-08T01:03:38.478Z,2.40
2022-11-08T01:06:08.128Z,2.33
2022-11-08T01:08:38.054Z,4.80
2022-11-08T01:11:07.610Z,5.03
2022-11-08T01:13:36.304Z,5.57
2022-11-08T01:16:07.810Z,5.07
2022-11-08T01:18:36.076Z,4.73
2022-11-08T01:21:05.371Z,4.30
2022-11-08T01:23:34.139Z,6.30
2022-11-08T01:26:06.747Z,4.80
2022-11-08T01:28:35.119Z,3.93
2022-11-08T01:31:05.559Z,3.60
2022-11-08T01:33:33.906Z,2.70
2022-11-08T01:36:02.033Z,4.00
2022-11-08T01:38:30.064Z,5.97
2022-11-08T01:40:58.102Z,6.33
2022-11-08T01:43:40.096Z,10.37
2022-11-08T01:46:41.754Z,12.53
2022-11-08T01:49:32.566Z,13.20
2022-11-08T01:52:18.951Z,12.13
2022-11-08T01:54:53.004Z,10.43
2022-11-08T01:57:24.234Z,4.80
2022-11-08T01:59:54.952Z,3.13
2022-11-08T02:02:23.118Z,2.80
2022-11-08T02:04:51.118Z,2.00
2022-11-08T02:07:19.237Z,1.47
2022-11-08T02:09:48.880Z,5.00
2022-11-08T02:12:18.497Z,6.60
2022-11-08T02:14:46.497Z,7.20
2022-11-08T02:17:16.067Z,9.73
2022-11-08T02:19:45.904Z,7.27
2022-11-08T02:22:19.670Z,5.17
2022-11-08T02:24:49.380Z,3.13
2022-11-08T02:27:17.468Z,2.07
2022-11-08T02:29:45.514Z,1.43
2022-11-08T02:32:13.771Z,1.67
2022-11-08T02:34:44.652Z,1.90
2022-11-08T02:37:14.080Z,2.23
2022-11-08T02:39:43.084Z,6.10
2022-11-08T02:42:16.543Z,6.23
2022-11-08T02:44:44.534Z,6.77
2022-11-08T02:47:12.591Z,4.27
2022-11-08T02:49:40.625Z,8.40
2022-11-08T02:52:08.828Z,9.30
2022-11-08T02:54:36.911Z,7.73
2022-11-08T02:57:04.911Z,6.50
2022-11-08T02:59:34.489Z,3.50
2022-11-08T03:02:02.688Z,4.17
2022-11-08T03:04:30.835Z,3.80
2022-11-08T03:06:58.813Z,3.27
2022-11-08T03:09:27.535Z,3.00
2022-11-08T03:11:55.527Z,2.57
2022-11-08T03:14:23.984Z,2.43
2022-11-08T03:16:53.364Z,1.47
2022-11-08T03:19:21.412Z,2.03
2022-11-08T03:21:49.374Z,2.50
2022-11-08T03:24:17.483Z,2.50
2022-11-08T03:26:45.742Z,3.10
2022-11-08T03:29:13.849Z,1.90
2022-11-08T03:31:41.844Z,1.60
2022-11-08T03:34:12.184Z,2.00
2022-11-08T03:36:40.333Z,1.20
2022-11-08T03:39:08.411Z,1.67
2022-11-08T03:41:36.445Z,4.50
2022-11-08T03:44:04.557Z,4.60
2022-11-08T03:46:32.617Z,5.47
2022-11-08T03:49:00.647Z,4.27
2022-11-08T03:51:30.036Z,4.47
2022-11-08T03:53:58.039Z,3.07
2022-11-08T03:56:26.059Z,3.90
2022-11-08T03:58:54.094Z,2.40
2022-11-08T04:01:22.458Z,1.60
2022-11-08T04:03:53.797Z,1.70
2022-11-08T04:06:21.891Z,1.20
2022-11-08T04:08:51.430Z,1.90
2022-11-08T04:11:37.257Z,2.30
2022-11-08T04:14:22.512Z,4.10
2022-11-08T04:16:50.568Z,4.80
2022-11-08T04:19:35.843Z,2.63
2022-11-08T04:22:04.308Z,2.33
2022-11-08T04:24:33.714Z,2.40
2022-11-08T04:27:02.784Z,1.73
2022-11-08T04:29:31.345Z,1.90
2022-11-08T04:31:59.464Z,2.50
2022-11-08T04:34:27.469Z,1.60
2022-11-08T04:36:55.872Z,1.57
2022-11-08T04:39:23.892Z,1.30
2022-11-08T04:41:57.735Z,1.67
2022-11-08T04:44:28.796Z,1.60
2022-11-08T04:46:56.755Z,1.87
2022-11-08T04:49:24.748Z,1.67
2022-11-08T04:51:52.759Z,1.60
2022-11-08T04:54:20.990Z,1.90
2022-11-08T04:56:49.013Z,2.30
2022-11-08T04:59:18.443Z,1.60
2022-11-08T05:01:46.651Z,1.23
2022-11-08T05:04:14.750Z,2.00
2022-11-08T05:06:42.725Z,4.90
2022-11-08T05:09:11.121Z,3.20
2022-11-08T05:11:39.125Z,2.50
2022-11-08T05:14:07.133Z,3.00
2022-11-08T05:16:36.510Z,1.53
2022-11-08T05:19:06.932Z,1.70
2022-11-08T05:22:03.015Z,3.00
2022-11-08T05:24:31.154Z,2.47
2022-11-08T05:26:59.270Z,6.17
2022-11-08T05:29:27.480Z,6.00
2022-11-08T05:31:57.018Z,4.00
2022-11-08T05:34:25.242Z,2.27
2022-11-08T05:36:53.293Z,1.53
2022-11-08T05:39:21.277Z,1.20
2022-11-08T05:41:49.391Z,1.40
2022-11-08T05:44:17.614Z,1.13
2022-11-08T05:46:45.858Z,1.00
2022-11-08T05:49:15.645Z,1.47
2022-11-08T05:51:43.662Z,1.10
2022-11-08T05:54:13.105Z,2.00
2022-11-08T05:56:41.182Z,2.17
2022-11-08T05:59:09.289Z,1.60
2022-11-08T06:01:37.287Z,2.13
2022-11-08T06:04:06.348Z,1.70
2022-11-08T06:06:36.272Z,2.03
2022-11-08T06:09:04.547Z,2.00
2022-11-08T06:11:32.729Z,1.50
2022-11-08T06:14:00.876Z,1.70
2022-11-08T06:16:28.905Z,2.30
2022-11-08T06:18:57.334Z,3.80
2022-11-08T06:21:27.247Z,2.67
2022-11-08T06:23:56.674Z,2.30
2022-11-08T06:26:25.194Z,2.47
2022-11-08T06:28:53.300Z,3.07
2022-11-08T06:31:21.302Z,1.93
2022-11-08T06:33:49.262Z,2.83
2022-11-08T06:36:17.242Z,2.40
2022-11-08T06:38:45.310Z,1.47
2022-11-08T06:41:18.852Z,2.27
2022-11-08T06:43:46.929Z,1.97
2022-11-08T06:46:15.071Z,2.13
2022-11-08T06:48:43.201Z,2.37
2022-11-08T06:51:11.364Z,4.03
2022-11-08T06:53:39.383Z,4.83
2022-11-08T06:56:07.847Z,2.50
2022-11-08T06:58:37.988Z,2.43
2022-11-08T07:01:06.999Z,2.70
2022-11-08T07:03:36.198Z,1.60
2022-11-08T07:06:06.604Z,2.00
2022-11-08T07:08:36.591Z,8.77
2022-11-08T07:11:05.802Z,8.07
2022-11-08T07:13:33.824Z,8.00
2022-11-08T07:16:03.781Z,4.73
2022-11-08T07:18:31.963Z,4.10
2022-11-08T07:21:00.861Z,3.73
2022-11-08T07:23:29.078Z,3.57
2022-11-08T07:25:57.219Z,2.80
2022-11-08T07:28:25.279Z,2.00
2022-11-08T07:30:58.922Z,2.63
2022-11-08T07:33:28.559Z,2.50
2022-11-08T07:35:57.110Z,3.53
2022-11-08T07:38:26.241Z,4.30
2022-11-08T07:40:57.791Z,5.90
2022-11-08T07:43:27.220Z,6.40
2022-11-08T07:45:57.850Z,8.53
2022-11-08T07:48:29.587Z,8.47
2022-11-08T07:50:58.289Z,6.67
2022-11-08T07:53:26.490Z,6.57
2022-11-08T07:55:55.277Z,4.53
2022-11-08T07:58:24.012Z,2.70
2022-11-08T08:00:52.224Z,2.50
2022-11-08T08:03:21.524Z,2.90
2022-11-08T08:06:00.565Z,7.10
2022-11-08T08:08:30.084Z,10.53
2022-11-08T08:11:00.404Z,9.90
2022-11-08T08:13:28.482Z,8.27
2022-11-08T08:15:59.621Z,8.33
2022-11-08T08:18:27.655Z,5.33
2022-11-08T08:20:57.129Z,4.90
2022-11-08T08:23:25.192Z,5.60
2022-11-08T08:25:57.529Z,5.90
2022-11-08T08:28:25.678Z,5.40
2022-11-08T08:30:53.780Z,5.10
2022-11-08T08:33:30.007Z,5.30
2022-11-08T08:36:04.964Z,5.17
2022-11-08T08:38:34.455Z,4.30
2022-11-08T08:41:03.472Z,4.00
2022-11-08T08:43:32.499Z,5.67
2022-11-08T08:46:01.938Z,6.27
2022-11-08T08:48:30.327Z,5.70
2022-11-08T08:51:00.091Z,6.20
2022-11-08T08:53:28.382Z,5.77
2022-11-08T08:55:58.299Z,5.83
2022-11-08T08:58:26.612Z,4.97
2022-11-08T09:03:43.618Z,5.10
2022-11-08T09:06:13.577Z,5.07
2022-11-08T09:08:42.975Z,4.90
2022-11-08T09:11:11.037Z,4.27
2022-11-08T09:13:39.220Z,4.20
2022-11-08T09:16:10.196Z,4.40
2022-11-08T09:18:38.284Z,3.50
2022-11-08T09:21:07.040Z,3.07
2022-11-08T09:23:36.640Z,3.23
2022-11-08T09:26:06.070Z,2.30
2022-11-08T09:28:36.088Z,2.40
2022-11-08T09:31:06.388Z,2.40
2022-11-08T09:33:34.582Z,2.30
2022-11-08T09:36:03.167Z,2.53
2022-11-08T09:38:31.996Z,2.20
2022-11-08T09:41:15.365Z,2.33
2022-11-08T09:43:54.480Z,2.10
2022-11-08T09:46:29.366Z,1.90
2022-11-08T09:48:59.224Z,2.30
2022-11-08T09:51:27.297Z,1.57
2022-11-08T09:53:56.866Z,1.83
2022-11-08T09:56:30.019Z,2.27
2022-11-08T09:59:02.446Z,1.50
2022-11-08T10:01:32.997Z,2.27
2022-11-08T10:04:03.798Z,1.70
2022-11-08T10:06:47.610Z,1.90
2022-11-08T10:09:29.005Z,1.50
2022-11-08T10:12:12.694Z,1.30
2022-11-08T10:14:54.146Z,1.70
2022-11-08T10:17:48.634Z,1.73
2022-11-08T10:20:24.522Z,1.73
2022-11-08T10:22:57.723Z,1.60
2022-11-08T10:25:26.729Z,2.00
2022-11-08T10:27:58.572Z,1.30
2022-11-08T10:30:31.894Z,1.50
2022-11-08T10:33:00.151Z,1.23
2022-11-08T10:35:31.455Z,1.70
2022-11-08T10:38:00.627Z,1.40
2022-11-08T10:40:37.950Z,1.30
2022-11-08T10:43:12.355Z,1.63
2022-11-08T10:45:40.683Z,1.70
2022-11-08T10:48:10.511Z,1.57
2022-11-08T10:50:43.985Z,1.30
2022-11-08T10:53:18.195Z,1.10
2022-11-08T10:55:51.853Z,1.50
2022-11-08T10:58:38.553Z,1.70
2022-11-08T11:01:18.278Z,2.33
2022-11-08T11:03:49.073Z,1.77
2022-11-08T11:06:27.583Z,1.83
2022-11-08T11:08:57.102Z,1.40
2022-11-08T11:11:27.931Z,1.33
2022-11-08T11:14:16.498Z,1.73
2022-11-08T11:16:57.756Z,1.67
2022-11-08T11:19:26.797Z,1.50
2022-11-08T11:21:58.084Z,1.67
2022-11-08T11:24:26.357Z,1.73
2022-11-08T11:27:04.272Z,1.57
2022-11-08T11:29:34.334Z,1.50
2022-11-08T11:32:24.437Z,1.60
2022-11-08T11:34:55.778Z,1.90
2022-11-08T11:37:30.706Z,2.17
2022-11-08T11:40:08.523Z,2.07
2022-11-08T11:42:46.595Z,1.30
2022-11-08T11:45:20.626Z,1.50
2022-11-08T11:47:53.297Z,2.27
2022-11-08T11:50:30.598Z,2.20
2022-11-08T11:52:59.768Z,2.00
2022-11-08T11:55:34.295Z,2.07
2022-11-08T11:58:07.943Z,2.30
2022-11-08T12:00:40.960Z,2.00
2022-11-08T12:03:31.737Z,1.60
2022-11-08T12:06:23.007Z,1.80
2022-11-08T12:09:14.341Z,1.90
2022-11-08T12:11:48.985Z,2.10
2022-11-08T12:14:29.432Z,1.50
2022-11-08T12:17:07.693Z,1.87
2022-11-08T12:19:42.278Z,1.63
2022-11-08T12:22:28.021Z,1.80
2022-11-08T12:25:00.136Z,1.80
2022-11-08T12:27:37.418Z,2.77
2022-11-08T12:30:11.495Z,2.40
2022-11-08T12:32:55.401Z,2.37
2022-11-08T12:35:32.687Z,2.97
2022-11-08T12:38:18.105Z,2.33
2022-11-08T12:40:50.669Z,2.83
2022-11-08T12:43:28.358Z,2.40
2022-11-08T12:46:07.472Z,2.63
2022-11-08T12:48:54.476Z,2.00
2022-11-08T12:51:26.342Z,3.30
2022-11-08T12:54:15.509Z,2.80
2022-11-08T12:56:48.386Z,4.00
2022-11-08T12:59:21.310Z,3.10
2022-11-08T13:01:51.126Z,4.27
2022-11-08T13:04:32.862Z,4.10
2022-11-08T13:07:04.421Z,4.20
2022-11-08T13:09:41.624Z,8.60
2022-11-08T13:12:21.407Z,8.67
2022-11-08T13:14:49.604Z,10.03
2022-11-08T13:17:22.573Z,6.67
2022-11-08T13:20:04.684Z,6.50
2022-11-08T13:22:58.839Z,6.70
2022-11-08T13:25:44.876Z,7.43
2022-11-08T13:28:35.829Z,9.50
2022-11-08T13:31:19.941Z,7.60
2022-11-08T13:33:58.472Z,8.33
2022-11-08T13:36:38.106Z,9.90
2022-11-08T13:39:23.723Z,11.90
2022-11-08T13:42:03.959Z,12.97
2022-11-08T13:45:01.276Z,10.40
2022-11-08T13:47:53.481Z,11.37
2022-11-08T13:50:50.907Z,12.67
2022-11-08T13:53:44.291Z,12.17
2022-11-08T13:56:46.915Z,11.27
2022-11-08T13:59:54.693Z,8.87
2022-11-08T14:02:42.174Z,9.50
2022-11-08T14:05:26.055Z,10.40
2022-11-08T14:08:20.172Z,12.37
2022-11-08T14:11:27.497Z,11.67
2022-11-08T14:14:35.448Z,11.90
2022-11-08T14:17:15.480Z,10.57
2022-11-08T14:19:47.048Z,13.40
2022-11-08T14:22:18.920Z,12.50
2022-11-08T14:24:47.391Z,10.30
2022-11-08T14:27:16.436Z,10.47
2022-11-08T14:29:45.985Z,11.10
2022-11-08T14:32:19.474Z,11.57
2022-11-08T14:34:47.637Z,16.13
2022-11-08T14:37:21.956Z,28.77
2022-11-08T14:39:50.135Z,30.20
2022-11-08T14:42:23.465Z,30.50
2022-11-08T14:44:56.319Z,29.93
2022-11-08T14:47:30.344Z,15.37
2022-11-08T14:49:59.041Z,12.43
2022-11-08T14:52:29.745Z,13.27
2022-11-08T14:55:05.257Z,11.93
2022-11-08T14:57:36.490Z,11.93
2022-11-08T15:00:15.100Z,11.43
2022-11-08T15:02:44.802Z,11.27
2022-11-08T15:05:28.530Z,12.27
2022-11-08T15:07:57.348Z,10.90
2022-11-08T15:10:26.499Z,11.10
2022-11-08T15:12:56.054Z,10.57
2022-11-08T15:15:32.418Z,11.83
2022-11-08T15:18:13.712Z,12.33
2022-11-08T15:20:55.802Z,11.83
2022-11-08T15:23:27.914Z,12.73
2022-11-08T15:25:58.432Z,11.30
2022-11-08T15:28:31.520Z,13.80
2022-11-08T15:31:02.606Z,13.20
2022-11-08T15:33:36.082Z,11.63
2022-11-08T15:36:05.446Z,11.43
2022-11-08T15:38:34.833Z,10.23
2022-11-08T15:41:04.758Z,10.50
2022-11-08T15:43:41.342Z,13.30
2022-11-08T15:46:38.314Z,12.17
2022-11-08T15:49:17.582Z,12.10
2022-11-08T15:51:45.626Z,12.80
2022-11-08T15:54:14.131Z,11.70
2022-11-08T15:56:42.431Z,10.10
2022-11-08T15:59:20.006Z,10.63
2022-11-08T16:01:55.718Z,10.83
2022-11-08T16:04:24.521Z,9.13
2022-11-08T16:06:53.272Z,11.27
2022-11-08T16:09:21.473Z,12.37
2022-11-08T16:11:49.883Z,10.40
2022-11-08T16:14:19.812Z,11.60
2022-11-08T16:16:48.113Z,13.30
2022-11-08T16:19:21.161Z,12.73
2022-11-08T16:21:49.327Z,14.67
2022-11-08T16:24:17.381Z,14.30
2022-11-08T16:26:46.323Z,15.13
2022-11-08T16:29:20.593Z,12.93
2022-11-08T16:31:48.735Z,13.70
2022-11-08T16:34:16.764Z,12.30
2022-11-08T16:36:46.984Z,13.63
2022-11-08T16:39:17.567Z,15.10
2022-11-08T16:41:45.826Z,15.57
2022-11-08T16:44:13.954Z,17.07
2022-11-08T16:46:42.339Z,16.40
2022-11-08T16:49:20.328Z,16.17
2022-11-08T16:51:50.013Z,14.97
2022-11-08T16:54:20.012Z,13.90
2022-11-08T16:56:48.018Z,13.43
2022-11-08T16:59:16.057Z,13.10
2022-11-08T17:01:44.570Z,14.60
2022-11-08T17:04:12.722Z,13.93
2022-11-08T17:06:41.093Z,12.47
2022-11-08T17:09:10.726Z,13.00
2022-11-08T17:11:40.292Z,13.47
2022-11-08T17:14:08.693Z,13.80
2022-11-08T17:16:36.897Z,11.90
2022-11-08T17:19:05.391Z,13.00
2022-11-08T17:21:48.547Z,12.43
2022-11-08T17:24:21.866Z,13.40
2022-11-08T17:26:50.839Z,12.93
2022-11-08T17:29:18.820Z,10.90
2022-11-08T17:31:46.925Z,12.80
2022-11-08T17:34:14.903Z,12.63
2022-11-08T17:36:43.067Z,13.53
2022-11-08T17:39:14.308Z,13.40
2022-11-08T17:41:44.144Z,15.00
2022-11-08T17:44:12.554Z,14.63
2022-11-08T17:46:40.644Z,14.17
2022-11-08T17:49:10.010Z,14.77
2022-11-08T17:51:37.996Z,13.97
2022-11-08T17:54:06.155Z,13.90
2022-11-08T17:56:35.115Z,11.50
2022-11-08T17:59:05.023Z,15.57
2022-11-08T18:01:33.945Z,15.43
2022-11-08T18:04:03.570Z,14.57
2022-11-08T18:06:31.747Z,12.30
2022-11-08T18:09:00.155Z,12.17
2022-11-08T18:11:28.325Z,11.83
2022-11-08T18:13:56.379Z,12.40
2022-11-08T18:16:25.877Z,12.43
2022-11-08T18:18:54.540Z,12.47
2022-11-08T18:21:22.706Z,11.70
2022-11-08T18:23:50.921Z,11.80
2022-11-08T18:26:19.595Z,11.67
2022-11-08T18:28:47.635Z,10.20
2022-11-08T18:31:18.893Z,9.50
2022-11-08T18:33:48.987Z,10.67
2022-11-08T18:36:20.003Z,8.87
2022-11-08T18:38:49.237Z,12.33
2022-11-08T18:41:18.834Z,12.00
2022-11-08T18:43:46.859Z,11.23
2022-11-08T18:46:17.050Z,11.67
2022-11-08T18:48:45.163Z,10.17
2022-11-08T18:51:16.766Z,11.03
2022-11-08T18:53:44.861Z,9.87
2022-11-08T18:56:14.410Z,10.10
2022-11-08T18:58:42.636Z,10.13
2022-11-08T19:01:11.160Z,9.50
2022-11-08T19:03:39.649Z,13.20
2022-11-08T19:06:08.753Z,11.43
2022-11-08T19:08:38.503Z,11.40
2022-11-08T19:11:08.529Z,12.17
2022-11-08T19:13:38.666Z,10.67
2022-11-08T19:16:10.158Z,11.77
2022-11-08T19:18:38.822Z,10.53
2022-11-08T19:21:09.469Z,10.27
2022-11-08T19:23:39.407Z,9.87
2022-11-08T19:26:09.391Z,10.27
2022-11-08T19:28:38.782Z,11.93
2022-11-08T19:31:07.652Z,10.73
2022-11-08T19:33:36.716Z,10.83
2022-11-08T19:36:06.778Z,13.70
2022-11-08T19:38:35.259Z,15.00
2022-11-08T19:41:05.461Z,14.90
2022-11-08T19:43:35.258Z,12.73
2022-11-08T19:46:05.541Z,11.93
2022-11-08T19:48:36.658Z,12.07
2022-11-08T19:51:06.238Z,12.07
2022-11-08T19:53:35.137Z,11.90
2022-11-08T19:56:07.275Z,10.33
2022-11-08T19:58:36.668Z,10.20
2022-11-08T20:01:08.948Z,8.87
2022-11-08T20:03:37.332Z,10.30
2022-11-08T20:06:05.770Z,12.67
2022-11-08T20:08:34.006Z,10.90
2022-11-08T20:11:02.280Z,10.37
2022-11-08T20:13:31.760Z,10.20
2022-11-08T20:16:09.848Z,10.63
2022-11-08T20:18:37.904Z,11.30
2022-11-08T20:21:06.663Z,10.97
2022-11-08T20:23:35.056Z,9.97
2022-11-08T20:26:04.212Z,11.70
2022-11-08T20:28:34.427Z,10.70
2022-11-08T20:31:05.358Z,10.70
2022-11-08T20:33:34.883Z,9.97
2022-11-08T20:36:04.251Z,9.07
2022-11-08T20:38:32.584Z,10.17
2022-11-08T20:41:00.844Z,11.00
2022-11-08T20:43:29.029Z,9.37
2022-11-08T20:46:04.469Z,10.03
2022-11-08T20:48:32.815Z,8.83
2022-11-08T20:51:01.921Z,8.97
2022-11-08T20:53:33.143Z,8.60
2022-11-08T20:56:03.835Z,9.10
2022-11-08T20:58:33.436Z,8.70
2022-11-08T21:01:05.159Z,7.50
2022-11-08T21:03:34.033Z,7.93
2022-11-08T21:06:03.468Z,6.53
2022-11-08T21:11:20.996Z,8.13
2022-11-08T21:13:49.542Z,7.90
2022-11-08T21:16:29.729Z,8.40
2022-11-08T21:18:59.470Z,9.67
2022-11-08T21:21:27.729Z,10.60
2022-11-08T21:23:56.171Z,10.67
2022-11-08T21:26:24.538Z,10.87
2022-11-08T21:28:52.841Z,8.13
2022-11-08T21:31:23.699Z,10.23
2022-11-08T21:33:51.921Z,10.17
2022-11-08T21:36:20.656Z,9.37
2022-11-08T21:38:49.085Z,9.30
2022-11-08T21:41:17.666Z,10.03
2022-11-08T21:43:47.662Z,8.70
2022-11-08T21:46:20.938Z,8.93
2022-11-08T21:48:55.003Z,9.33
2022-11-08T21:51:23.963Z,8.60
2022-11-08T21:53:55.219Z,8.10
2022-11-08T21:56:25.037Z,8.50
2022-11-08T21:58:53.322Z,8.33
2022-11-08T22:01:26.957Z,8.20
2022-11-08T22:03:59.493Z,8.23
2022-11-08T22:06:28.052Z,8.30
2022-11-08T22:08:56.309Z,7.47
2022-11-08T22:11:24.716Z,7.33
2022-11-08T22:13:52.800Z,7.53
2022-11-08T22:16:21.052Z,9.10
2022-11-08T22:19:05.919Z,9.67
2022-11-08T22:21:39.457Z,8.30
2022-11-08T22:24:08.527Z,8.63
2022-11-08T22:26:36.978Z,7.70
2022-11-08T22:29:05.194Z,8.70
2022-11-08T22:31:33.634Z,8.23
2022-11-08T22:34:01.995Z,8.27
2022-11-08T22:36:30.284Z,7.00
2022-11-08T22:39:00.112Z,8.40
2022-11-08T22:41:28.814Z,7.73
2022-11-08T22:43:57.013Z,7.40
2022-11-08T22:46:25.775Z,8.10
2022-11-08T22:48:54.365Z,7.60
2022-11-08T22:51:22.473Z,6.73
2022-11-08T22:53:50.472Z,7.80
2022-11-08T22:56:19.983Z,7.13
2022-11-08T22:58:48.040Z,7.00
2022-11-08T23:01:17.145Z,6.60
2022-11-08T23:03:46.758Z,6.50
2022-11-08T23:06:15.255Z,7.13
2022-11-08T23:08:43.872Z,5.70
2022-11-08T23:11:29.717Z,6.07
2022-11-08T23:14:18.013Z,5.83
2022-11-08T23:16:47.077Z,7.70
2022-11-08T23:19:39.594Z,6.97
2022-11-08T23:22:28.017Z,6.07
2022-11-08T23:24:56.120Z,6.90
2022-11-08T23:27:42.545Z,5.93
2022-11-08T23:30:31.868Z,5.67
2022-11-08T23:32:59.859Z,6.37
2022-11-08T23:35:27.945Z,6.10
2022-11-08T23:37:56.617Z,4.20
2022-11-08T23:40:41.865Z,5.83
2022-11-08T23:43:30.202Z,5.10
2022-11-08T23:45:59.979Z,5.50
2022-11-08T23:48:28.390Z,5.20
2022-11-08T23:50:56.493Z,5.77
2022-11-08T23:53:26.166Z,8.77
2022-11-08T23:55:54.145Z,10.77
2022-11-08T23:58:22.681Z,8.60
